sensor_id;sensor_type;location;lat;lon;timestamp;pressure;altitude;pressure_sealevel;temperature;humidity
34482;BME280;20720;48.886;9.388;2022-11-14T00:02:05;98359.44;;;8.88;100.00
34482;BME280;20720;48.886;9.388;2022-11-14T00:04:30;98364.44;;;9.04;100.00
34482;BME280;20720;48.886;9.388;2022-11-14T00:06:56;98363.69;;;8.89;100.00
34482;BME280;20720;48.886;9.388;2022-11-14T00:09:28;98364.63;;;9.02;100.00
34482;BME280;20720;48.886;9.388;2022-11-14T00:11:53;98352.59;;;9.08;100.00
34482;BME280;20720;48.886;9.388;2022-11-14T00:14:19;98362.75;;;9.17;100.00
34482;BME280;20720;48.886;9.388;2022-11-14T00:16:45;98350.94;;;8.86;100.00
34482;BME280;20720;48.886;9.388;2022-11-14T00:19:10;98342.97;;;9.15;100.00
34482;BME280;20720;48.886;9.388;2022-11-14T00:21:35;98352.97;;;8.84;100.00
34482;BME280;20720;48.886;9.388;2022-11-14T00:24:01;98353.19;;;9.31;100.00
34482;BME280;20720;48.886;9.388;2022-11-14T00:26:26;98355.09;;;8.74;100.00
34482;BME280;20720;48.886;9.388;2022-11-14T00:28:53;98347.09;;;8.61;100.00
34482;BME280;20720;48.886;9.388;2022-11-14T00:31:18;98359.00;;;9.05;100.00
34482;BME280;20720;48.886;9.388;2022-11-14T00:33:44;98356.56;;;9.04;100.00
34482;BME280;20720;48.886;9.388;2022-11-14T00:36:09;98347.97;;;8.89;100.00
34482;BME280;20720;48.886;9.388;2022-11-14T00:38:34;98347.28;;;9.01;100.00
34482;BME280;20720;48.886;9.388;2022-11-14T00:40:59;98344.97;;;9.13;100.00
34482;BME280;20720;48.886;9.388;2022-11-14T00:43:25;98344.53;;;9.37;100.00
34482;BME280;20720;48.886;9.388;2022-11-14T00:45:50;98347.56;;;9.34;100.00
34482;BME280;20720;48.886;9.388;2022-11-14T00:48:15;98358.97;;;9.26;100.00
34482;BME280;20720;48.886;9.388;2022-11-14T00:50:41;98350.19;;;9.13;100.00
34482;BME280;20720;48.886;9.388;2022-11-14T00:53:07;98352.31;;;9.24;100.00
34482;BME280;20720;48.886;9.388;2022-11-14T00:55:32;98335.78;;;9.23;100.00
34482;BME280;20720;48.886;9.388;2022-11-14T00:57:57;98336.22;;;9.27;100.00
34482;BME280;20720;48.886;9.388;2022-11-14T01:00:23;98338.72;;;8.50;100.00
34482;BME280;20720;48.886;9.388;2022-11-14T01:02:48;98344.84;;;9.00;100.00
34482;BME280;20720;48.886;9.388;2022-11-14T01:05:13;98347.97;;;9.10;100.00
34482;BME280;20720;48.886;9.388;2022-11-14T01:07:38;98333.34;;;9.22;100.00
34482;BME280;20720;48.886;9.388;2022-11-14T01:10:05;98337.94;;;9.20;100.00
34482;BME280;20720;48.886;9.388;2022-11-14T01:12:30;98339.06;;;9.32;100.00
34482;BME280;20720;48.886;9.388;2022-11-14T01:14:55;98340.41;;;9.49;100.00
34482;BME280;20720;48.886;9.388;2022-11-14T01:17:21;98336.66;;;9.37;100.00
34482;BME280;20720;48.886;9.388;2022-11-14T01:19:46;98330.31;;;9.46;100.00
34482;BME280;20720;48.886;9.388;2022-11-14T01:22:11;98323.81;;;9.42;100.00
34482;BME280;20720;48.886;9.388;2022-11-14T01:24:36;98332.44;;;9.36;100.00
34482;BME280;20720;48.886;9.388;2022-11-14T01:27:02;98330.72;;;9.49;100.00
34482;BME280;20720;48.886;9.388;2022-11-14T01:29:27;98337.72;;;9.15;100.00
34482;BME280;20720;48.886;9.388;2022-11-14T01:31:53;98339.56;;;7.72;100.00
34482;BME280;20720;48.886;9.388;2022-11-14T01:34:18;98334.50;;;8.71;100.00
34482;BME280;20720;48.886;9.388;2022-11-14T01:36:43;98337.81;;;9.28;100.00
34482;BME280;20720;48.886;9.388;2022-11-14T01:39:09;98323.81;;;9.42;100.00
34482;BME280;20720;48.886;9.388;2022-11-14T01:41:34;98323.34;;;9.32;100.00
34482;BME280;20720;48.886;9.388;2022-11-14T01:43:59;98318.78;;;9.40;100.00
34482;BME280;20720;48.886;9.388;2022-11-14T01:46:28;98315.75;;;9.43;100.00
34482;BME280;20720;48.886;9.388;2022-11-14T01:48:58;98310.25;;;9.11;100.00
34482;BME280;20720;48.886;9.388;2022-11-14T01:51:40;98307.69;;;9.45;100.00
34482;BME280;20720;48.886;9.388;2022-11-14T01:54:13;98308.97;;;9.56;100.00
34482;BME280;20720;48.886;9.388;2022-11-14T01:56:41;98311.66;;;9.34;100.00
34482;BME280;20720;48.886;9.388;2022-11-14T01:59:11;98305.25;;;9.43;100.00
34482;BME280;20720;48.886;9.388;2022-11-14T02:01:44;98300.78;;;9.37;100.00
34482;BME280;20720;48.886;9.388;2022-11-14T02:04:10;98301.25;;;9.20;100.00
34482;BME280;20720;48.886;9.388;2022-11-14T02:06:39;98300.03;;;9.50;100.00
34482;BME280;20720;48.886;9.388;2022-11-14T02:09:06;98297.25;;;9.24;100.00
34482;BME280;20720;48.886;9.388;2022-11-14T02:11:36;98303.41;;;9.10;100.00
34482;BME280;20720;48.886;9.388;2022-11-14T02:14:02;98296.44;;;9.51;100.00
34482;BME280;20720;48.886;9.388;2022-11-14T02:16:28;98291.91;;;9.11;100.00
34482;BME280;20720;48.886;9.388;2022-11-14T02:18:53;98294.56;;;9.45;100.00
34482;BME280;20720;48.886;9.388;2022-11-14T02:21:19;98294.84;;;9.57;100.00
34482;BME280;20720;48.886;9.388;2022-11-14T02:23:44;98292.09;;;9.71;100.00
34482;BME280;20720;48.886;9.388;2022-11-14T02:26:09;98299.34;;;9.69;100.00
34482;BME280;20720;48.886;9.388;2022-11-14T02:28:34;98304.50;;;9.49;100.00
34482;BME280;20720;48.886;9.388;2022-11-14T02:31:00;98297.19;;;9.38;100.00
34482;BME280;20720;48.886;9.388;2022-11-14T02:33:25;98295.78;;;8.66;100.00
34482;BME280;20720;48.886;9.388;2022-11-14T02:35:50;98291.34;;;8.24;100.00
34482;BME280;20720;48.886;9.388;2022-11-14T02:38:16;98289.53;;;8.67;100.00
34482;BME280;20720;48.886;9.388;2022-11-14T02:40:41;98277.78;;;8.57;100.00
34482;BME280;20720;48.886;9.388;2022-11-14T02:43:06;98279.34;;;8.72;100.00
34482;BME280;20720;48.886;9.388;2022-11-14T02:45:32;98278.31;;;8.16;100.00
34482;BME280;20720;48.886;9.388;2022-11-14T02:47:57;98281.53;;;8.47;100.00
34482;BME280;20720;48.886;9.388;2022-11-14T02:50:22;98282.81;;;8.22;100.00
34482;BME280;20720;48.886;9.388;2022-11-14T02:52:47;98290.78;;;8.14;100.00
34482;BME280;20720;48.886;9.388;2022-11-14T02:55:13;98304.59;;;8.23;100.00
34482;BME280;20720;48.886;9.388;2022-11-14T02:57:38;98299.13;;;8.03;100.00
34482;BME280;20720;48.886;9.388;2022-11-14T03:00:04;98303.13;;;7.70;100.00
34482;BME280;20720;48.886;9.388;2022-11-14T03:02:30;98305.72;;;7.55;100.00
34482;BME280;20720;48.886;9.388;2022-11-14T03:04:55;98291.59;;;7.50;100.00
34482;BME280;20720;48.886;9.388;2022-11-14T03:07:20;98289.69;;;7.73;100.00
34482;BME280;20720;48.886;9.388;2022-11-14T03:09:46;98286.44;;;7.42;100.00
34482;BME280;20720;48.886;9.388;2022-11-14T03:12:15;98275.47;;;7.46;100.00
34482;BME280;20720;48.886;9.388;2022-11-14T03:14:40;98272.66;;;7.48;100.00
34482;BME280;20720;48.886;9.388;2022-11-14T03:17:05;98265.63;;;7.63;100.00
34482;BME280;20720;48.886;9.388;2022-11-14T03:19:31;98271.47;;;7.65;100.00
34482;BME280;20720;48.886;9.388;2022-11-14T03:21:56;98277.16;;;7.54;100.00
34482;BME280;20720;48.886;9.388;2022-11-14T03:24:21;98277.31;;;7.09;100.00
34482;BME280;20720;48.886;9.388;2022-11-14T03:26:46;98273.50;;;7.34;100.00
34482;BME280;20720;48.886;9.388;2022-11-14T03:29:12;98269.94;;;7.27;100.00
34482;BME280;20720;48.886;9.388;2022-11-14T03:31:37;98262.84;;;7.35;100.00
34482;BME280;20720;48.886;9.388;2022-11-14T03:34:02;98251.22;;;7.23;100.00
34482;BME280;20720;48.886;9.388;2022-11-14T03:36:27;98258.16;;;7.16;100.00
34482;BME280;20720;48.886;9.388;2022-11-14T03:38:53;98246.34;;;7.20;100.00
34482;BME280;20720;48.886;9.388;2022-11-14T03:41:18;98242.47;;;7.16;100.00
34482;BME280;20720;48.886;9.388;2022-11-14T03:43:43;98236.09;;;7.19;100.00
34482;BME280;20720;48.886;9.388;2022-11-14T03:46:08;98228.97;;;5.93;100.00
34482;BME280;20720;48.886;9.388;2022-11-14T03:48:34;98217.22;;;6.42;100.00
34482;BME280;20720;48.886;9.388;2022-11-14T03:50:59;98236.13;;;6.82;100.00
34482;BME280;20720;48.886;9.388;2022-11-14T03:53:24;98240.81;;;6.72;100.00
34482;BME280;20720;48.886;9.388;2022-11-14T03:55:50;98258.97;;;6.20;100.00
34482;BME280;20720;48.886;9.388;2022-11-14T03:58:15;98254.94;;;5.79;100.00
34482;BME280;20720;48.886;9.388;2022-11-14T04:00:41;98260.91;;;5.95;100.00
34482;BME280;20720;48.886;9.388;2022-11-14T04:03:06;98267.13;;;5.94;100.00
34482;BME280;20720;48.886;9.388;2022-11-14T04:05:31;98267.34;;;5.77;100.00
34482;BME280;20720;48.886;9.388;2022-11-14T04:07:57;98250.25;;;6.05;100.00
34482;BME280;20720;48.886;9.388;2022-11-14T04:10:22;98258.38;;;6.32;100.00
34482;BME280;20720;48.886;9.388;2022-11-14T04:12:49;98262.09;;;6.15;100.00
34482;BME280;20720;48.886;9.388;2022-11-14T04:15:15;98253.16;;;6.32;100.00
34482;BME280;20720;48.886;9.388;2022-11-14T04:17:40;98257.59;;;6.32;100.00
34482;BME280;20720;48.886;9.388;2022-11-14T04:20:06;98264.41;;;6.55;100.00
34482;BME280;20720;48.886;9.388;2022-11-14T04:22:31;98259.25;;;6.47;100.00
34482;BME280;20720;48.886;9.388;2022-11-14T04:24:56;98260.25;;;6.46;100.00
34482;BME280;20720;48.886;9.388;2022-11-14T04:27:22;98251.44;;;6.85;100.00
34482;BME280;20720;48.886;9.388;2022-11-14T04:29:47;98249.03;;;6.60;100.00
34482;BME280;20720;48.886;9.388;2022-11-14T04:32:12;98245.88;;;6.50;100.00
34482;BME280;20720;48.886;9.388;2022-11-14T04:34:37;98242.47;;;6.64;100.00
34482;BME280;20720;48.886;9.388;2022-11-14T04:37:03;98243.47;;;6.63;100.00
34482;BME280;20720;48.886;9.388;2022-11-14T04:39:28;98231.78;;;6.74;100.00
34482;BME280;20720;48.886;9.388;2022-11-14T04:41:53;98235.16;;;6.83;100.00
34482;BME280;20720;48.886;9.388;2022-11-14T04:44:18;98210.31;;;6.87;100.00
34482;BME280;20720;48.886;9.388;2022-11-14T04:46:44;98205.81;;;6.43;100.00
34482;BME280;20720;48.886;9.388;2022-11-14T04:49:09;98209.94;;;6.90;100.00
34482;BME280;20720;48.886;9.388;2022-11-14T04:51:34;98212.94;;;7.16;100.00
34482;BME280;20720;48.886;9.388;2022-11-14T04:53:59;98215.44;;;7.24;100.00
34482;BME280;20720;48.886;9.388;2022-11-14T04:56:25;98212.28;;;7.14;100.00
34482;BME280;20720;48.886;9.388;2022-11-14T04:58:50;98211.22;;;7.23;100.00
34482;BME280;20720;48.886;9.388;2022-11-14T05:01:16;98210.03;;;7.25;100.00
34482;BME280;20720;48.886;9.388;2022-11-14T05:03:41;98208.25;;;7.26;100.00
34482;BME280;20720;48.886;9.388;2022-11-14T05:06:07;98210.38;;;6.93;100.00
34482;BME280;20720;48.886;9.388;2022-11-14T05:08:33;98208.59;;;7.08;100.00
34482;BME280;20720;48.886;9.388;2022-11-14T05:10:59;98201.69;;;6.49;100.00
34482;BME280;20720;48.886;9.388;2022-11-14T05:13:24;98204.66;;;6.60;100.00
34482;BME280;20720;48.886;9.388;2022-11-14T05:15:49;98197.78;;;6.68;100.00
34482;BME280;20720;48.886;9.388;2022-11-14T05:18:15;98202.47;;;7.01;100.00
34482;BME280;20720;48.886;9.388;2022-11-14T05:20:40;98203.25;;;6.73;100.00
34482;BME280;20720;48.886;9.388;2022-11-14T05:23:05;98194.78;;;6.56;100.00
34482;BME280;20720;48.886;9.388;2022-11-14T05:25:30;98196.22;;;6.58;100.00
34482;BME280;20720;48.886;9.388;2022-11-14T05:27:55;98192.63;;;6.59;100.00
34482;BME280;20720;48.886;9.388;2022-11-14T05:30:21;98183.94;;;6.44;100.00
34482;BME280;20720;48.886;9.388;2022-11-14T05:32:46;98196.06;;;6.75;100.00
34482;BME280;20720;48.886;9.388;2022-11-14T05:35:12;98184.63;;;6.01;100.00
34482;BME280;20720;48.886;9.388;2022-11-14T05:37:37;98192.09;;;6.04;100.00
34482;BME280;20720;48.886;9.388;2022-11-14T05:40:04;98187.28;;;6.53;100.00
34482;BME280;20720;48.886;9.388;2022-11-14T05:42:30;98188.84;;;6.02;100.00
34482;BME280;20720;48.886;9.388;2022-11-14T05:44:55;98185.22;;;6.11;100.00
34482;BME280;20720;48.886;9.388;2022-11-14T05:47:20;98187.13;;;6.69;100.00
34482;BME280;20720;48.886;9.388;2022-11-14T05:49:46;98194.75;;;6.41;100.00
34482;BME280;20720;48.886;9.388;2022-11-14T05:52:11;98191.22;;;7.01;100.00
34482;BME280;20720;48.886;9.388;2022-11-14T05:54:37;98187.13;;;6.69;100.00
34482;BME280;20720;48.886;9.388;2022-11-14T05:57:02;98187.59;;;6.73;100.00
34482;BME280;20720;48.886;9.388;2022-11-14T05:59:28;98191.75;;;6.82;100.00
34482;BME280;20720;48.886;9.388;2022-11-14T06:01:53;98197.19;;;7.09;100.00
34482;BME280;20720;48.886;9.388;2022-11-14T06:04:18;98199.13;;;6.93;100.00
34482;BME280;20720;48.886;9.388;2022-11-14T06:06:43;98197.44;;;7.14;100.00
34482;BME280;20720;48.886;9.388;2022-11-14T06:09:09;98194.91;;;6.77;100.00
34482;BME280;20720;48.886;9.388;2022-11-14T06:11:34;98193.94;;;6.41;100.00
34482;BME280;20720;48.886;9.388;2022-11-14T06:14:00;98193.72;;;6.80;100.00
34482;BME280;20720;48.886;9.388;2022-11-14T06:16:25;98192.34;;;6.54;100.00
34482;BME280;20720;48.886;9.388;2022-11-14T06:18:54;98191.25;;;6.04;100.00
34482;BME280;20720;48.886;9.388;2022-11-14T06:21:21;98189.53;;;6.41;100.00
34482;BME280;20720;48.886;9.388;2022-11-14T06:23:47;98195.59;;;6.71;100.00
34482;BME280;20720;48.886;9.388;2022-11-14T06:26:27;98207.25;;;6.83;100.00
34482;BME280;20720;48.886;9.388;2022-11-14T06:28:54;98201.72;;;6.78;100.00
34482;BME280;20720;48.886;9.388;2022-11-14T06:31:20;98206.44;;;7.26;100.00
34482;BME280;20720;48.886;9.388;2022-11-14T06:33:47;98198.94;;;6.80;100.00
34482;BME280;20720;48.886;9.388;2022-11-14T06:36:12;98190.22;;;7.16;100.00
34482;BME280;20720;48.886;9.388;2022-11-14T06:38:39;98196.91;;;7.19;100.00
34482;BME280;20720;48.886;9.388;2022-11-14T06:43:34;98199.91;;;7.66;100.00
34482;BME280;20720;48.886;9.388;2022-11-14T06:46:00;98215.19;;;7.84;100.00
34482;BME280;20720;48.886;9.388;2022-11-14T06:48:25;98215.19;;;8.19;100.00
34482;BME280;20720;48.886;9.388;2022-11-14T06:50:52;98216.38;;;7.81;100.00
34482;BME280;20720;48.886;9.388;2022-11-14T06:53:18;98225.03;;;7.67;100.00
34482;BME280;20720;48.886;9.388;2022-11-14T06:55:54;98220.91;;;8.72;100.00
34482;BME280;20720;48.886;9.388;2022-11-14T06:58:20;98222.22;;;8.89;100.00
34482;BME280;20720;48.886;9.388;2022-11-14T07:00:45;98218.22;;;8.65;100.00
34482;BME280;20720;48.886;9.388;2022-11-14T07:03:11;98210.09;;;8.32;100.00
34482;BME280;20720;48.886;9.388;2022-11-14T07:05:36;98205.34;;;8.98;100.00
34482;BME280;20720;48.886;9.388;2022-11-14T07:08:01;98205.91;;;9.62;100.00
34482;BME280;20720;48.886;9.388;2022-11-14T07:10:26;98216.13;;;9.50;100.00
34482;BME280;20720;48.886;9.388;2022-11-14T07:12:52;98221.09;;;8.98;100.00
34482;BME280;20720;48.886;9.388;2022-11-14T07:15:17;98218.78;;;8.61;100.00
34482;BME280;20720;48.886;9.388;2022-11-14T07:17:42;98222.97;;;8.76;100.00
34482;BME280;20720;48.886;9.388;2022-11-14T07:20:08;98213.34;;;8.90;100.00
34482;BME280;20720;48.886;9.388;2022-11-14T07:22:33;98214.94;;;8.57;100.00
34482;BME280;20720;48.886;9.388;2022-11-14T07:24:58;98217.97;;;8.60;100.00
34482;BME280;20720;48.886;9.388;2022-11-14T07:27:24;98214.16;;;8.84;100.00
34482;BME280;20720;48.886;9.388;2022-11-14T07:29:49;98213.09;;;9.06;100.00
34482;BME280;20720;48.886;9.388;2022-11-14T07:32:14;98214.63;;;9.28;100.00
34482;BME280;20720;48.886;9.388;2022-11-14T07:34:40;98210.31;;;9.14;100.00
34482;BME280;20720;48.886;9.388;2022-11-14T07:37:05;98217.31;;;9.07;100.00
34482;BME280;20720;48.886;9.388;2022-11-14T07:39:30;98222.03;;;8.90;100.00
34482;BME280;20720;48.886;9.388;2022-11-14T07:41:56;98224.25;;;8.38;100.00
34482;BME280;20720;48.886;9.388;2022-11-14T07:44:21;98228.97;;;7.92;100.00
34482;BME280;20720;48.886;9.388;2022-11-14T07:46:46;98230.13;;;8.68;100.00
34482;BME280;20720;48.886;9.388;2022-11-14T07:49:12;98233.75;;;8.67;100.00
34482;BME280;20720;48.886;9.388;2022-11-14T07:51:37;98239.50;;;8.34;100.00
34482;BME280;20720;48.886;9.388;2022-11-14T07:54:02;98240.38;;;8.63;100.00
34482;BME280;20720;48.886;9.388;2022-11-14T07:56:28;98250.66;;;8.64;100.00
34482;BME280;20720;48.886;9.388;2022-11-14T07:58:54;98256.47;;;8.87;100.00
34482;BME280;20720;48.886;9.388;2022-11-14T08:01:19;98269.19;;;8.90;100.00
34482;BME280;20720;48.886;9.388;2022-11-14T08:03:44;98262.72;;;9.14;100.00
34482;BME280;20720;48.886;9.388;2022-11-14T08:06:12;98257.06;;;8.40;100.00
34482;BME280;20720;48.886;9.388;2022-11-14T08:08:37;98274.19;;;9.13;100.00
34482;BME280;20720;48.886;9.388;2022-11-14T08:11:03;98271.41;;;9.48;100.00
34482;BME280;20720;48.886;9.388;2022-11-14T08:13:29;98267.09;;;9.75;100.00
34482;BME280;20720;48.886;9.388;2022-11-14T08:15:55;98263.44;;;9.70;100.00
34482;BME280;20720;48.886;9.388;2022-11-14T08:18:21;98271.38;;;9.42;100.00
34482;BME280;20720;48.886;9.388;2022-11-14T08:20:46;98260.50;;;8.90;100.00
34482;BME280;20720;48.886;9.388;2022-11-14T08:23:12;98265.38;;;10.02;100.00
34482;BME280;20720;48.886;9.388;2022-11-14T08:25:37;98259.63;;;10.19;100.00
34482;BME280;20720;48.886;9.388;2022-11-14T08:28:03;98266.72;;;10.25;100.00
34482;BME280;20720;48.886;9.388;2022-11-14T08:30:28;98262.09;;;11.38;100.00
34482;BME280;20720;48.886;9.388;2022-11-14T08:32:54;98247.50;;;13.00;100.00
34482;BME280;20720;48.886;9.388;2022-11-14T08:35:20;98254.69;;;13.90;100.00
34482;BME280;20720;48.886;9.388;2022-11-14T08:37:46;98277.03;;;12.53;100.00
34482;BME280;20720;48.886;9.388;2022-11-14T08:40:11;98283.16;;;13.09;100.00
34482;BME280;20720;48.886;9.388;2022-11-14T08:42:37;98280.59;;;13.20;100.00
34482;BME280;20720;48.886;9.388;2022-11-14T08:45:03;98280.03;;;13.37;100.00
34482;BME280;20720;48.886;9.388;2022-11-14T08:47:28;98282.78;;;13.48;100.00
34482;BME280;20720;48.886;9.388;2022-11-14T08:49:54;98284.88;;;12.66;100.00
34482;BME280;20720;48.886;9.388;2022-11-14T08:52:20;98274.75;;;12.32;100.00
34482;BME280;20720;48.886;9.388;2022-11-14T08:54:45;98273.59;;;13.08;100.00
34482;BME280;20720;48.886;9.388;2022-11-14T08:57:11;98292.28;;;13.31;100.00
34482;BME280;20720;48.886;9.388;2022-11-14T08:59:39;98295.13;;;12.74;100.00
34482;BME280;20720;48.886;9.388;2022-11-14T09:02:05;98294.44;;;12.22;100.00
34482;BME280;20720;48.886;9.388;2022-11-14T09:04:30;98286.28;;;12.93;100.00
34482;BME280;20720;48.886;9.388;2022-11-14T09:06:55;98290.78;;;12.86;100.00
34482;BME280;20720;48.886;9.388;2022-11-14T09:09:22;98280.97;;;12.68;100.00
34482;BME280;20720;48.886;9.388;2022-11-14T09:11:47;98291.34;;;12.70;100.00
34482;BME280;20720;48.886;9.388;2022-11-14T09:14:13;98297.25;;;12.59;100.00
34482;BME280;20720;48.886;9.388;2022-11-14T09:16:38;98295.66;;;11.56;100.00
34482;BME280;20720;48.886;9.388;2022-11-14T09:19:03;98279.03;;;11.62;100.00
34482;BME280;20720;48.886;9.388;2022-11-14T09:21:29;98255.81;;;11.26;100.00
34482;BME280;20720;48.886;9.388;2022-11-14T09:23:54;98265.69;;;11.57;100.00
34482;BME280;20720;48.886;9.388;2022-11-14T09:26:19;98255.81;;;11.46;100.00
34482;BME280;20720;48.886;9.388;2022-11-14T09:28:45;98263.53;;;11.21;100.00
34482;BME280;20720;48.886;9.388;2022-11-14T09:31:11;98257.78;;;11.57;100.00
34482;BME280;20720;48.886;9.388;2022-11-14T09:33:37;98258.00;;;11.56;100.00
34482;BME280;20720;48.886;9.388;2022-11-14T09:36:05;98262.44;;;11.55;100.00
34482;BME280;20720;48.886;9.388;2022-11-14T09:38:31;98253.56;;;11.50;100.00
34482;BME280;20720;48.886;9.388;2022-11-14T09:43:46;98252.16;;;11.34;100.00
34482;BME280;20720;48.886;9.388;2022-11-14T09:48:56;98234.09;;;12.14;100.00
34482;BME280;20720;48.886;9.388;2022-11-14T09:51:24;98234.72;;;12.10;100.00
34482;BME280;20720;48.886;9.388;2022-11-14T09:56:24;98225.31;;;12.27;100.00
34482;BME280;20720;48.886;9.388;2022-11-14T09:58:50;98226.22;;;12.08;100.00
34482;BME280;20720;48.886;9.388;2022-11-14T10:01:32;98217.19;;;11.91;100.00
34482;BME280;20720;48.886;9.388;2022-11-14T10:09:57;98211.00;;;12.16;100.00
34482;BME280;20720;48.886;9.388;2022-11-14T10:15:25;98196.72;;;12.55;100.00
34482;BME280;20720;48.886;9.388;2022-11-14T10:18:05;98191.53;;;12.49;100.00
34482;BME280;20720;48.886;9.388;2022-11-14T10:20:45;98197.53;;;12.56;100.00
34482;BME280;20720;48.886;9.388;2022-11-14T10:23:28;98199.31;;;13.11;100.00
34482;BME280;20720;48.886;9.388;2022-11-14T10:26:07;98203.16;;;13.15;100.00
34482;BME280;20720;48.886;9.388;2022-11-14T10:31:28;98202.72;;;12.69;100.00
34482;BME280;20720;48.886;9.388;2022-11-14T10:34:03;98205.94;;;12.71;100.00
34482;BME280;20720;48.886;9.388;2022-11-14T10:36:47;98208.25;;;12.85;100.00
34482;BME280;20720;48.886;9.388;2022-11-14T10:39:24;98205.88;;;13.02;100.00
34482;BME280;20720;48.886;9.388;2022-11-14T10:41:54;98209.31;;;13.02;100.00
34482;BME280;20720;48.886;9.388;2022-11-14T10:44:29;98204.59;;;12.62;100.00
34482;BME280;20720;48.886;9.388;2022-11-14T10:47:01;98202.84;;;12.49;100.00
34482;BME280;20720;48.886;9.388;2022-11-14T10:49:31;98194.88;;;12.62;100.00
34482;BME280;20720;48.886;9.388;2022-11-14T10:52:04;98197.44;;;13.54;100.00
34482;BME280;20720;48.886;9.388;2022-11-14T10:54:40;98202.47;;;12.95;100.00
34482;BME280;20720;48.886;9.388;2022-11-14T10:57:14;98208.28;;;13.28;100.00
34482;BME280;20720;48.886;9.388;2022-11-14T10:59:40;98217.06;;;13.22;100.00
34482;BME280;20720;48.886;9.388;2022-11-14T11:02:07;98220.44;;;13.29;100.00
34482;BME280;20720;48.886;9.388;2022-11-14T11:04:34;98222.63;;;13.14;100.00
34482;BME280;20720;48.886;9.388;2022-11-14T11:09:31;98219.06;;;13.02;100.00
34482;BME280;20720;48.886;9.388;2022-11-14T11:12:20;98213.56;;;13.28;100.00
34482;BME280;20720;48.886;9.388;2022-11-14T11:14:49;98210.97;;;13.21;100.00
34482;BME280;20720;48.886;9.388;2022-11-14T11:17:20;98198.53;;;13.47;100.00
34482;BME280;20720;48.886;9.388;2022-11-14T11:19:47;98202.84;;;13.77;100.00
34482;BME280;20720;48.886;9.388;2022-11-14T11:22:25;98194.94;;;13.41;100.00
34482;BME280;20720;48.886;9.388;2022-11-14T11:24:50;98190.81;;;13.63;100.00
34482;BME280;20720;48.886;9.388;2022-11-14T11:27:22;98186.25;;;13.70;100.00
34482;BME280;20720;48.886;9.388;2022-11-14T11:30:04;98183.78;;;13.75;100.00
34482;BME280;20720;48.886;9.388;2022-11-14T11:32:30;98185.03;;;14.02;100.00
34482;BME280;20720;48.886;9.388;2022-11-14T11:34:56;98183.03;;;14.46;100.00
34482;BME280;20720;48.886;9.388;2022-11-14T11:37:42;98182.47;;;14.90;100.00
34482;BME280;20720;48.886;9.388;2022-11-14T11:40:15;98186.63;;;14.97;100.00
34482;BME280;20720;48.886;9.388;2022-11-14T11:42:47;98185.69;;;14.92;100.00
34482;BME280;20720;48.886;9.388;2022-11-14T11:45:16;98184.34;;;14.78;100.00
34482;BME280;20720;48.886;9.388;2022-11-14T11:47:57;98182.47;;;14.78;100.00
34482;BME280;20720;48.886;9.388;2022-11-14T11:50:24;98185.38;;;15.00;100.00
34482;BME280;20720;48.886;9.388;2022-11-14T11:55:33;98181.09;;;14.76;100.00
34482;BME280;20720;48.886;9.388;2022-11-14T11:58:05;98178.81;;;14.79;100.00
34482;BME280;20720;48.886;9.388;2022-11-14T12:00:34;98175.09;;;14.69;100.00
34482;BME280;20720;48.886;9.388;2022-11-14T12:02:59;98175.88;;;14.46;100.00
34482;BME280;20720;48.886;9.388;2022-11-14T12:08:23;98178.31;;;14.71;100.00
34482;BME280;20720;48.886;9.388;2022-11-14T12:10:51;98173.53;;;14.91;100.00
34482;BME280;20720;48.886;9.388;2022-11-14T12:13:40;98169.00;;;14.91;100.00
34482;BME280;20720;48.886;9.388;2022-11-14T12:16:18;98176.03;;;14.63;100.00
34482;BME280;20720;48.886;9.388;2022-11-14T12:24:02;98179.34;;;14.58;100.00
34482;BME280;20720;48.886;9.388;2022-11-14T12:31:56;98181.28;;;14.40;100.00
34482;BME280;20720;48.886;9.388;2022-11-14T12:34:27;98168.78;;;14.58;100.00
34482;BME280;20720;48.886;9.388;2022-11-14T12:36:54;98171.69;;;14.80;100.00
34482;BME280;20720;48.886;9.388;2022-11-14T12:41:47;98168.66;;;14.88;100.00
34482;BME280;20720;48.886;9.388;2022-11-14T12:44:20;98168.66;;;15.34;100.00
34482;BME280;20720;48.886;9.388;2022-11-14T12:49:57;98168.38;;;15.70;100.00
34482;BME280;20720;48.886;9.388;2022-11-14T12:52:50;98170.41;;;16.69;100.00
34482;BME280;20720;48.886;9.388;2022-11-14T13:03:23;98180.38;;;18.47;87.24
34482;BME280;20720;48.886;9.388;2022-11-14T13:06:01;98180.41;;;17.17;100.00
34482;BME280;20720;48.886;9.388;2022-11-14T13:08:51;98179.53;;;16.00;100.00
34482;BME280;20720;48.886;9.388;2022-11-14T13:14:14;98174.88;;;16.08;100.00
34482;BME280;20720;48.886;9.388;2022-11-14T13:23:31;98172.53;;;18.62;85.45
34482;BME280;20720;48.886;9.388;2022-11-14T13:36:18;98167.03;;;19.62;80.53
34482;BME280;20720;48.886;9.388;2022-11-14T13:47:40;98158.25;;;18.78;82.31
34482;BME280;20720;48.886;9.388;2022-11-14T13:50:16;98176.81;;;19.41;79.70
34482;BME280;20720;48.886;9.388;2022-11-14T13:52:45;98166.88;;;19.32;81.23
34482;BME280;20720;48.886;9.388;2022-11-14T13:59:00;98167.81;;;19.16;81.10
34482;BME280;20720;48.886;9.388;2022-11-14T14:09:14;98169.09;;;21.12;70.70
34482;BME280;20720;48.886;9.388;2022-11-14T14:11:50;98161.91;;;20.78;72.60
34482;BME280;20720;48.886;9.388;2022-11-14T14:14:44;98170.44;;;20.24;74.04
34482;BME280;20720;48.886;9.388;2022-11-14T14:20:16;98162.03;;;19.76;75.60
34482;BME280;20720;48.886;9.388;2022-11-14T14:25:24;98158.16;;;18.10;88.20
34482;BME280;20720;48.886;9.388;2022-11-14T14:28:32;98153.09;;;17.81;90.65
34482;BME280;20720;48.886;9.388;2022-11-14T14:31:07;98159.22;;;18.09;89.53
34482;BME280;20720;48.886;9.388;2022-11-14T14:33:45;98164.34;;;17.67;89.71
34482;BME280;20720;48.886;9.388;2022-11-14T14:38:44;98158.69;;;18.07;89.59
34482;BME280;20720;48.886;9.388;2022-11-14T14:41:10;98166.00;;;17.51;93.13
34482;BME280;20720;48.886;9.388;2022-11-14T14:43:36;98169.63;;;17.45;95.29